sensor_id;sensor_type;location;lat;lon;timestamp;pressure;altitude;pressure_sealevel;temperature;humidity
52653;BME280;39353;42.864;12.014;2023-12-04T00:01:00;97965.17;;;21.55;47.28
52653;BME280;39353;42.864;12.014;2023-12-04T00:03:43;97967.16;;;21.53;47.22
52653;BME280;39353;42.864;12.014;2023-12-04T00:06:10;97967.32;;;21.53;47.32
52653;BME280;39353;42.864;12.014;2023-12-04T00:08:37;97967.67;;;21.52;47.42
52653;BME280;39353;42.864;12.014;2023-12-04T00:11:05;97970.02;;;21.51;47.23
52653;BME280;39353;42.864;12.014;2023-12-04T00:13:31;97972.41;;;21.51;47.35
52653;BME280;39353;42.864;12.014;2023-12-04T00:15:57;97967.42;;;21.50;47.28
52653;BME280;39353;42.864;12.014;2023-12-04T00:18:23;97969.64;;;21.50;47.31
52653;BME280;39353;42.864;12.014;2023-12-04T00:20:49;97974.27;;;21.50;47.44
52653;BME280;39353;42.864;12.014;2023-12-04T00:23:15;97969.65;;;21.49;47.29
52653;BME280;39353;42.864;12.014;2023-12-04T00:25:41;97972.77;;;21.47;47.31
52653;BME280;39353;42.864;12.014;2023-12-04T00:28:08;97973.32;;;21.46;47.37
52653;BME280;39353;42.864;12.014;2023-12-04T00:30:34;97981.44;;;21.45;47.24
52653;BME280;39353;42.864;12.014;2023-12-04T00:33:00;97982.74;;;21.45;47.27
52653;BME280;39353;42.864;12.014;2023-12-04T00:35:26;97979.27;;;21.42;47.39
52653;BME280;39353;42.864;12.014;2023-12-04T00:37:52;97973.05;;;21.41;47.41
52653;BME280;39353;42.864;12.014;2023-12-04T00:40:18;97974.63;;;21.40;47.53
52653;BME280;39353;42.864;12.014;2023-12-04T00:42:44;97978.70;;;21.40;47.47
52653;BME280;39353;42.864;12.014;2023-12-04T00:45:11;97978.81;;;21.39;47.40
52653;BME280;39353;42.864;12.014;2023-12-04T00:47:37;97983.23;;;21.39;47.47
52653;BME280;39353;42.864;12.014;2023-12-04T00:50:04;97987.81;;;21.36;47.38
52653;BME280;39353;42.864;12.014;2023-12-04T00:52:30;97988.71;;;21.35;47.46
52653;BME280;39353;42.864;12.014;2023-12-04T00:54:56;97988.74;;;21.35;47.56
52653;BME280;39353;42.864;12.014;2023-12-04T00:57:22;97988.21;;;21.33;47.44
52653;BME280;39353;42.864;12.014;2023-12-04T00:59:49;97982.89;;;21.33;47.62
52653;BME280;39353;42.864;12.014;2023-12-04T01:02:15;97990.09;;;21.32;47.50
52653;BME280;39353;42.864;12.014;2023-12-04T01:04:41;97996.34;;;21.31;47.57
52653;BME280;39353;42.864;12.014;2023-12-04T01:07:08;97996.80;;;21.31;47.58
52653;BME280;39353;42.864;12.014;2023-12-04T01:09:35;97997.02;;;21.29;47.65
52653;BME280;39353;42.864;12.014;2023-12-04T01:12:02;97997.58;;;21.27;47.64
52653;BME280;39353;42.864;12.014;2023-12-04T01:14:29;97994.27;;;21.25;47.62
52653;BME280;39353;42.864;12.014;2023-12-04T01:16:56;98005.59;;;21.25;47.67
52653;BME280;39353;42.864;12.014;2023-12-04T01:19:22;98009.84;;;21.24;47.62
52653;BME280;39353;42.864;12.014;2023-12-04T01:21:48;98008.41;;;21.23;47.74
52653;BME280;39353;42.864;12.014;2023-12-04T01:24:15;98001.38;;;21.21;47.71
52653;BME280;39353;42.864;12.014;2023-12-04T01:26:41;97997.21;;;21.21;47.70
52653;BME280;39353;42.864;12.014;2023-12-04T01:29:07;97994.27;;;21.21;47.60
52653;BME280;39353;42.864;12.014;2023-12-04T01:31:34;97989.83;;;21.20;47.67
52653;BME280;39353;42.864;12.014;2023-12-04T01:34:00;97986.52;;;21.19;47.75
52653;BME280;39353;42.864;12.014;2023-12-04T01:36:27;97981.83;;;21.18;47.71
52653;BME280;39353;42.864;12.014;2023-12-04T01:38:53;97981.32;;;21.18;47.49
52653;BME280;39353;42.864;12.014;2023-12-04T01:41:19;97980.78;;;21.18;47.59
52653;BME280;39353;42.864;12.014;2023-12-04T01:43:46;97977.54;;;21.17;47.67
52653;BME280;39353;42.864;12.014;2023-12-04T01:46:14;97973.30;;;21.16;47.59
52653;BME280;39353;42.864;12.014;2023-12-04T01:48:41;97974.23;;;21.15;47.71
52653;BME280;39353;42.864;12.014;2023-12-04T01:51:10;97963.40;;;21.14;47.67
52653;BME280;39353;42.864;12.014;2023-12-04T01:53:39;97962.73;;;21.14;47.77
52653;BME280;39353;42.864;12.014;2023-12-04T01:56:07;97963.20;;;21.13;47.86
52653;BME280;39353;42.864;12.014;2023-12-04T01:58:34;97964.92;;;21.12;47.82
52653;BME280;39353;42.864;12.014;2023-12-04T02:01:01;97959.21;;;21.12;47.79
52653;BME280;39353;42.864;12.014;2023-12-04T02:03:28;97959.64;;;21.11;47.78
52653;BME280;39353;42.864;12.014;2023-12-04T02:05:59;97957.50;;;21.10;47.80
52653;BME280;39353;42.864;12.014;2023-12-04T02:08:26;97956.67;;;21.09;47.78
52653;BME280;39353;42.864;12.014;2023-12-04T02:10:52;97954.98;;;21.09;47.91
52653;BME280;39353;42.864;12.014;2023-12-04T02:13:19;97958.89;;;21.09;47.91
52653;BME280;39353;42.864;12.014;2023-12-04T02:15:49;97957.04;;;21.08;47.80
52653;BME280;39353;42.864;12.014;2023-12-04T02:18:17;97949.54;;;21.07;47.81
52653;BME280;39353;42.864;12.014;2023-12-04T02:20:44;97948.87;;;21.06;47.79
52653;BME280;39353;42.864;12.014;2023-12-04T02:23:10;97951.56;;;21.05;47.90
52653;BME280;39353;42.864;12.014;2023-12-04T02:25:37;97948.01;;;21.05;47.87
52653;BME280;39353;42.864;12.014;2023-12-04T02:28:10;97941.80;;;21.05;47.99
52653;BME280;39353;42.864;12.014;2023-12-04T02:30:38;97936.67;;;21.04;47.84
52653;BME280;39353;42.864;12.014;2023-12-04T02:33:09;97935.84;;;21.03;47.95
52653;BME280;39353;42.864;12.014;2023-12-04T02:35:39;97933.20;;;21.03;47.94
52653;BME280;39353;42.864;12.014;2023-12-04T02:38:07;97931.52;;;21.02;47.95
52653;BME280;39353;42.864;12.014;2023-12-04T02:40:34;97930.00;;;21.02;47.87
52653;BME280;39353;42.864;12.014;2023-12-04T02:43:01;97926.43;;;21.03;47.87
52653;BME280;39353;42.864;12.014;2023-12-04T02:45:27;97923.21;;;21.03;47.72
52653;BME280;39353;42.864;12.014;2023-12-04T02:47:53;97922.08;;;21.03;47.70
52653;BME280;39353;42.864;12.014;2023-12-04T02:50:19;97920.77;;;21.03;47.79
52653;BME280;39353;42.864;12.014;2023-12-04T02:52:45;97922.83;;;21.03;47.88
52653;BME280;39353;42.864;12.014;2023-12-04T02:55:11;97919.13;;;21.03;47.73
52653;BME280;39353;42.864;12.014;2023-12-04T02:57:37;97912.77;;;21.02;47.85
52653;BME280;39353;42.864;12.014;2023-12-04T03:00:04;97910.58;;;21.02;47.82
52653;BME280;39353;42.864;12.014;2023-12-04T03:02:32;97912.94;;;21.01;47.83
52653;BME280;39353;42.864;12.014;2023-12-04T03:04:58;97915.05;;;20.98;47.88
52653;BME280;39353;42.864;12.014;2023-12-04T03:07:24;97915.71;;;20.97;47.72
52653;BME280;39353;42.864;12.014;2023-12-04T03:09:52;97914.75;;;20.96;48.01
52653;BME280;39353;42.864;12.014;2023-12-04T03:12:18;97907.83;;;20.95;47.84
52653;BME280;39353;42.864;12.014;2023-12-04T03:14:44;97905.55;;;20.95;47.96
52653;BME280;39353;42.864;12.014;2023-12-04T03:17:10;97900.66;;;20.93;47.84
52653;BME280;39353;42.864;12.014;2023-12-04T03:19:36;97904.77;;;20.95;47.82
52653;BME280;39353;42.864;12.014;2023-12-04T03:22:03;97903.17;;;20.93;47.94
52653;BME280;39353;42.864;12.014;2023-12-04T03:24:29;97906.20;;;20.93;47.85
52653;BME280;39353;42.864;12.014;2023-12-04T03:26:55;97908.17;;;20.93;47.76
52653;BME280;39353;42.864;12.014;2023-12-04T03:29:21;97909.02;;;20.92;47.81
52653;BME280;39353;42.864;12.014;2023-12-04T03:31:48;97906.59;;;20.91;47.89
52653;BME280;39353;42.864;12.014;2023-12-04T03:34:14;97904.20;;;20.91;47.78
52653;BME280;39353;42.864;12.014;2023-12-04T03:36:40;97901.44;;;20.90;47.97
52653;BME280;39353;42.864;12.014;2023-12-04T03:39:06;97904.91;;;20.90;47.94
52653;BME280;39353;42.864;12.014;2023-12-04T03:41:32;97901.95;;;20.89;47.88
52653;BME280;39353;42.864;12.014;2023-12-04T03:43:58;97904.13;;;20.89;48.03
52653;BME280;39353;42.864;12.014;2023-12-04T03:46:24;97900.52;;;20.89;47.99
52653;BME280;39353;42.864;12.014;2023-12-04T03:48:51;97899.27;;;20.89;48.00
52653;BME280;39353;42.864;12.014;2023-12-04T03:51:17;97902.99;;;20.90;47.86
52653;BME280;39353;42.864;12.014;2023-12-04T03:53:43;97905.85;;;20.89;47.94
52653;BME280;39353;42.864;12.014;2023-12-04T03:56:10;97907.33;;;20.89;47.87
52653;BME280;39353;42.864;12.014;2023-12-04T03:58:37;97907.36;;;20.88;47.86
52653;BME280;39353;42.864;12.014;2023-12-04T04:01:04;97906.48;;;20.88;47.91
52653;BME280;39353;42.864;12.014;2023-12-04T04:03:30;97904.38;;;20.87;47.92
52653;BME280;39353;42.864;12.014;2023-12-04T04:05:57;97906.73;;;20.88;47.90
52653;BME280;39353;42.864;12.014;2023-12-04T04:08:23;97904.55;;;20.88;47.89
52653;BME280;39353;42.864;12.014;2023-12-04T04:10:49;97905.06;;;20.87;47.90
52653;BME280;39353;42.864;12.014;2023-12-04T04:13:16;97904.05;;;20.86;47.84
52653;BME280;39353;42.864;12.014;2023-12-04T04:15:42;97909.17;;;20.86;48.05
52653;BME280;39353;42.864;12.014;2023-12-04T04:18:08;97908.29;;;20.86;47.91
52653;BME280;39353;42.864;12.014;2023-12-04T04:20:34;97910.40;;;20.85;47.96
52653;BME280;39353;42.864;12.014;2023-12-04T04:23:00;97913.79;;;20.84;47.94
52653;BME280;39353;42.864;12.014;2023-12-04T04:25:27;97918.45;;;20.83;48.03
52653;BME280;39353;42.864;12.014;2023-12-04T04:27:53;97918.16;;;20.83;48.11
52653;BME280;39353;42.864;12.014;2023-12-04T04:30:19;97918.41;;;20.83;47.99
52653;BME280;39353;42.864;12.014;2023-12-04T04:32:45;97920.21;;;20.82;48.03
52653;BME280;39353;42.864;12.014;2023-12-04T04:35:11;97923.92;;;20.82;48.04
52653;BME280;39353;42.864;12.014;2023-12-04T04:37:37;97924.54;;;20.81;48.01
52653;BME280;39353;42.864;12.014;2023-12-04T04:40:04;97924.30;;;20.81;48.09
52653;BME280;39353;42.864;12.014;2023-12-04T04:42:31;97921.45;;;20.81;47.96
52653;BME280;39353;42.864;12.014;2023-12-04T04:44:57;97921.38;;;20.79;47.94
52653;BME280;39353;42.864;12.014;2023-12-04T04:47:23;97923.52;;;20.79;48.07
52653;BME280;39353;42.864;12.014;2023-12-04T04:49:49;97921.46;;;20.79;48.16
52653;BME280;39353;42.864;12.014;2023-12-04T04:52:15;97928.02;;;20.79;48.11
52653;BME280;39353;42.864;12.014;2023-12-04T04:54:41;97928.43;;;20.78;48.06
52653;BME280;39353;42.864;12.014;2023-12-04T04:57:07;97933.60;;;20.78;47.96
52653;BME280;39353;42.864;12.014;2023-12-04T04:59:34;97937.70;;;20.77;48.16
52653;BME280;39353;42.864;12.014;2023-12-04T05:02:00;97933.79;;;20.76;48.07
52653;BME280;39353;42.864;12.014;2023-12-04T05:04:26;97935.33;;;20.75;48.11
52653;BME280;39353;42.864;12.014;2023-12-04T05:06:52;97935.70;;;20.75;48.04
52653;BME280;39353;42.864;12.014;2023-12-04T05:09:18;97934.58;;;20.74;48.00
52653;BME280;39353;42.864;12.014;2023-12-04T05:11:44;97931.73;;;20.74;48.07
52653;BME280;39353;42.864;12.014;2023-12-04T05:14:12;97934.20;;;20.73;48.11
52653;BME280;39353;42.864;12.014;2023-12-04T05:16:38;97928.91;;;20.73;48.13
52653;BME280;39353;42.864;12.014;2023-12-04T05:19:04;97932.23;;;20.73;47.92
52653;BME280;39353;42.864;12.014;2023-12-04T05:21:31;97933.33;;;20.72;48.24
52653;BME280;39353;42.864;12.014;2023-12-04T05:23:58;97934.45;;;20.73;48.19
52653;BME280;39353;42.864;12.014;2023-12-04T05:26:24;97928.13;;;20.71;48.06
52653;BME280;39353;42.864;12.014;2023-12-04T05:28:50;97930.47;;;20.70;48.07
52653;BME280;39353;42.864;12.014;2023-12-04T05:31:16;97930.52;;;20.70;48.07
52653;BME280;39353;42.864;12.014;2023-12-04T05:33:42;97926.27;;;20.70;47.99
52653;BME280;39353;42.864;12.014;2023-12-04T05:36:10;97928.34;;;20.70;48.17
52653;BME280;39353;42.864;12.014;2023-12-04T05:38:36;97932.23;;;20.69;48.19
52653;BME280;39353;42.864;12.014;2023-12-04T05:41:03;97939.48;;;20.69;48.21
52653;BME280;39353;42.864;12.014;2023-12-04T05:43:29;97946.38;;;20.69;48.23
52653;BME280;39353;42.864;12.014;2023-12-04T05:45:55;97945.62;;;20.69;48.22
52653;BME280;39353;42.864;12.014;2023-12-04T05:48:21;97939.12;;;20.69;48.09
52653;BME280;39353;42.864;12.014;2023-12-04T05:50:48;97941.50;;;20.70;48.03
52653;BME280;39353;42.864;12.014;2023-12-04T05:53:14;97944.52;;;20.69;47.92
52653;BME280;39353;42.864;12.014;2023-12-04T05:55:40;97950.86;;;20.69;47.96
52653;BME280;39353;42.864;12.014;2023-12-04T05:58:06;97955.35;;;20.70;48.02
52653;BME280;39353;42.864;12.014;2023-12-04T06:00:33;97954.22;;;20.69;48.15
52653;BME280;39353;42.864;12.014;2023-12-04T06:02:59;97953.34;;;20.67;48.30
52653;BME280;39353;42.864;12.014;2023-12-04T06:05:25;97952.80;;;20.67;48.25
52653;BME280;39353;42.864;12.014;2023-12-04T06:07:51;97953.67;;;20.67;48.27
52653;BME280;39353;42.864;12.014;2023-12-04T06:10:17;97949.94;;;20.67;48.37
52653;BME280;39353;42.864;12.014;2023-12-04T06:12:44;97945.30;;;20.63;47.57
52653;BME280;39353;42.864;12.014;2023-12-04T06:15:10;97942.37;;;20.60;47.44
52653;BME280;39353;42.864;12.014;2023-12-04T06:17:36;97938.25;;;20.59;47.50
52653;BME280;39353;42.864;12.014;2023-12-04T06:20:03;97939.39;;;20.59;47.65
52653;BME280;39353;42.864;12.014;2023-12-04T06:22:30;97936.58;;;20.60;47.89
52653;BME280;39353;42.864;12.014;2023-12-04T06:24:56;97935.32;;;20.59;47.83
52653;BME280;39353;42.864;12.014;2023-12-04T06:27:23;97935.95;;;20.59;47.51
52653;BME280;39353;42.864;12.014;2023-12-04T06:29:50;97928.70;;;20.59;47.64
52653;BME280;39353;42.864;12.014;2023-12-04T06:32:17;97929.29;;;20.58;47.57
52653;BME280;39353;42.864;12.014;2023-12-04T06:34:45;97929.63;;;20.57;47.12
52653;BME280;39353;42.864;12.014;2023-12-04T06:37:13;97928.04;;;20.54;47.24
52653;BME280;39353;42.864;12.014;2023-12-04T06:39:39;97922.72;;;20.53;47.19
52653;BME280;39353;42.864;12.014;2023-12-04T06:42:08;97924.55;;;20.53;47.49
52653;BME280;39353;42.864;12.014;2023-12-04T06:44:36;97926.32;;;20.53;47.54
52653;BME280;39353;42.864;12.014;2023-12-04T06:47:03;97923.39;;;20.54;47.74
52653;BME280;39353;42.864;12.014;2023-12-04T06:49:32;97924.43;;;20.53;47.76
52653;BME280;39353;42.864;12.014;2023-12-04T06:51:59;97924.23;;;20.53;47.70
52653;BME280;39353;42.864;12.014;2023-12-04T06:54:26;97929.42;;;20.53;47.82
52653;BME280;39353;42.864;12.014;2023-12-04T06:56:53;97932.56;;;20.55;47.76
52653;BME280;39353;42.864;12.014;2023-12-04T06:59:19;97936.38;;;20.55;47.80
52653;BME280;39353;42.864;12.014;2023-12-04T07:01:46;97938.17;;;20.55;47.63
52653;BME280;39353;42.864;12.014;2023-12-04T07:04:12;97939.39;;;20.54;47.61
52653;BME280;39353;42.864;12.014;2023-12-04T07:06:40;97944.86;;;20.52;47.72
52653;BME280;39353;42.864;12.014;2023-12-04T07:09:07;97952.88;;;20.52;47.82
52653;BME280;39353;42.864;12.014;2023-12-04T07:11:36;97954.69;;;20.52;47.88
52653;BME280;39353;42.864;12.014;2023-12-04T07:14:02;97950.30;;;20.53;48.02
52653;BME280;39353;42.864;12.014;2023-12-04T07:16:28;97954.37;;;20.55;47.86
52653;BME280;39353;42.864;12.014;2023-12-04T07:18:54;97958.90;;;20.55;47.84
52653;BME280;39353;42.864;12.014;2023-12-04T07:21:21;97952.91;;;20.53;47.92
52653;BME280;39353;42.864;12.014;2023-12-04T07:23:47;97962.42;;;20.54;48.09
52653;BME280;39353;42.864;12.014;2023-12-04T07:26:13;97960.02;;;20.54;48.18
52653;BME280;39353;42.864;12.014;2023-12-04T07:28:39;97964.77;;;20.56;47.98
52653;BME280;39353;42.864;12.014;2023-12-04T07:31:06;97964.77;;;20.54;47.72
52653;BME280;39353;42.864;12.014;2023-12-04T07:33:32;97966.45;;;20.57;48.13
52653;BME280;39353;42.864;12.014;2023-12-04T07:35:59;97964.21;;;20.59;48.19
52653;BME280;39353;42.864;12.014;2023-12-04T07:38:25;97963.98;;;20.61;48.27
52653;BME280;39353;42.864;12.014;2023-12-04T07:40:51;97971.56;;;20.64;48.34
52653;BME280;39353;42.864;12.014;2023-12-04T07:43:17;97966.01;;;20.66;48.45
52653;BME280;39353;42.864;12.014;2023-12-04T07:45:43;97964.84;;;20.67;48.21
52653;BME280;39353;42.864;12.014;2023-12-04T07:48:10;97963.52;;;20.57;45.34
52653;BME280;39353;42.864;12.014;2023-12-04T07:50:36;97963.12;;;20.50;45.95
52653;BME280;39353;42.864;12.014;2023-12-04T07:53:03;97967.27;;;20.49;46.74
52653;BME280;39353;42.864;12.014;2023-12-04T07:55:30;97969.73;;;20.48;47.17
52653;BME280;39353;42.864;12.014;2023-12-04T07:57:56;97974.10;;;20.50;47.16
52653;BME280;39353;42.864;12.014;2023-12-04T08:00:22;97979.27;;;20.50;47.30
52653;BME280;39353;42.864;12.014;2023-12-04T08:02:48;97984.39;;;20.50;47.41
52653;BME280;39353;42.864;12.014;2023-12-04T08:05:14;97988.06;;;20.50;47.27
52653;BME280;39353;42.864;12.014;2023-12-04T08:07:41;97995.08;;;20.51;47.48
52653;BME280;39353;42.864;12.014;2023-12-04T08:10:07;97995.88;;;20.50;47.41
52653;BME280;39353;42.864;12.014;2023-12-04T08:12:34;97996.26;;;20.50;47.60
52653;BME280;39353;42.864;12.014;2023-12-04T08:15:02;98000.58;;;20.50;47.53
52653;BME280;39353;42.864;12.014;2023-12-04T08:17:29;98008.08;;;20.50;47.50
52653;BME280;39353;42.864;12.014;2023-12-04T08:19:55;97999.50;;;20.44;44.80
52653;BME280;39353;42.864;12.014;2023-12-04T08:22:21;97993.27;;;20.30;44.31
52653;BME280;39353;42.864;12.014;2023-12-04T08:24:47;97992.81;;;20.31;45.61
52653;BME280;39353;42.864;12.014;2023-12-04T08:27:13;97989.22;;;20.32;46.01
52653;BME280;39353;42.864;12.014;2023-12-04T08:29:40;97996.67;;;20.36;46.46
52653;BME280;39353;42.864;12.014;2023-12-04T08:32:06;97999.39;;;20.39;46.62
52653;BME280;39353;42.864;12.014;2023-12-04T08:34:32;97999.80;;;20.43;46.71
52653;BME280;39353;42.864;12.014;2023-12-04T08:36:59;97990.59;;;20.48;46.57
52653;BME280;39353;42.864;12.014;2023-12-04T08:39:25;97988.52;;;20.52;46.83
52653;BME280;39353;42.864;12.014;2023-12-04T08:41:51;97993.30;;;20.57;46.99
52653;BME280;39353;42.864;12.014;2023-12-04T08:44:18;97995.85;;;20.61;47.15
52653;BME280;39353;42.864;12.014;2023-12-04T08:46:44;97991.02;;;20.65;47.01
52653;BME280;39353;42.864;12.014;2023-12-04T08:49:11;97994.95;;;20.70;47.19
52653;BME280;39353;42.864;12.014;2023-12-04T08:51:37;97992.52;;;20.75;47.34
52653;BME280;39353;42.864;12.014;2023-12-04T08:54:04;97993.74;;;20.80;47.40
52653;BME280;39353;42.864;12.014;2023-12-04T08:56:30;97995.82;;;20.85;47.42
52653;BME280;39353;42.864;12.014;2023-12-04T08:58:57;98000.92;;;20.91;47.53
52653;BME280;39353;42.864;12.014;2023-12-04T09:01:24;97998.69;;;20.98;47.62
52653;BME280;39353;42.864;12.014;2023-12-04T09:03:52;97998.89;;;21.04;47.46
52653;BME280;39353;42.864;12.014;2023-12-04T09:06:19;98004.61;;;21.08;47.18
52653;BME280;39353;42.864;12.014;2023-12-04T09:08:45;97998.00;;;21.15;47.19
52653;BME280;39353;42.864;12.014;2023-12-04T09:11:11;97993.30;;;21.23;47.24
52653;BME280;39353;42.864;12.014;2023-12-04T09:13:38;97986.86;;;21.29;47.11
52653;BME280;39353;42.864;12.014;2023-12-04T09:16:06;97978.64;;;21.34;47.10
52653;BME280;39353;42.864;12.014;2023-12-04T09:18:34;97980.04;;;21.40;47.11
52653;BME280;39353;42.864;12.014;2023-12-04T09:21:00;97977.99;;;21.45;47.00
52653;BME280;39353;42.864;12.014;2023-12-04T09:23:26;97975.44;;;21.50;46.93
52653;BME280;39353;42.864;12.014;2023-12-04T09:25:52;97970.30;;;21.53;46.72
52653;BME280;39353;42.864;12.014;2023-12-04T09:28:18;97961.80;;;21.56;46.99
52653;BME280;39353;42.864;12.014;2023-12-04T09:30:44;97967.25;;;21.62;46.75
52653;BME280;39353;42.864;12.014;2023-12-04T09:33:11;97970.14;;;21.65;46.87
52653;BME280;39353;42.864;12.014;2023-12-04T09:35:37;97968.96;;;21.66;46.96
52653;BME280;39353;42.864;12.014;2023-12-04T09:38:04;97969.54;;;21.67;46.87
52653;BME280;39353;42.864;12.014;2023-12-04T09:40:30;97966.29;;;21.70;46.83
52653;BME280;39353;42.864;12.014;2023-12-04T09:42:57;97965.75;;;21.72;46.75
52653;BME280;39353;42.864;12.014;2023-12-04T09:45:24;97968.80;;;21.76;46.72
52653;BME280;39353;42.864;12.014;2023-12-04T09:47:51;97967.83;;;21.79;46.82
52653;BME280;39353;42.864;12.014;2023-12-04T09:50:18;97969.44;;;21.81;46.72
52653;BME280;39353;42.864;12.014;2023-12-04T09:52:48;97967.41;;;21.84;46.74
52653;BME280;39353;42.864;12.014;2023-12-04T09:55:16;97957.51;;;21.86;46.79
52653;BME280;39353;42.864;12.014;2023-12-04T09:57:46;97956.41;;;21.85;46.92
52653;BME280;39353;42.864;12.014;2023-12-04T10:00:13;97942.73;;;21.85;46.81
52653;BME280;39353;42.864;12.014;2023-12-04T10:02:41;97938.83;;;21.84;46.91
52653;BME280;39353;42.864;12.014;2023-12-04T10:05:08;97936.04;;;21.85;46.94
52653;BME280;39353;42.864;12.014;2023-12-04T10:07:35;97933.79;;;21.89;46.88
52653;BME280;39353;42.864;12.014;2023-12-04T10:10:05;97928.19;;;21.90;47.02
52653;BME280;39353;42.864;12.014;2023-12-04T10:12:32;97928.35;;;21.91;46.99
52653;BME280;39353;42.864;12.014;2023-12-04T10:15:08;97919.56;;;21.90;46.79
52653;BME280;39353;42.864;12.014;2023-12-04T10:17:37;97908.50;;;21.87;46.63
52653;BME280;39353;42.864;12.014;2023-12-04T10:20:06;97903.75;;;21.82;46.78
52653;BME280;39353;42.864;12.014;2023-12-04T10:22:42;97899.84;;;21.79;46.86
52653;BME280;39353;42.864;12.014;2023-12-04T10:25:17;97893.54;;;21.77;46.76
52653;BME280;39353;42.864;12.014;2023-12-04T10:27:46;97891.04;;;21.75;46.93
52653;BME280;39353;42.864;12.014;2023-12-04T10:30:24;97885.33;;;21.74;46.84
52653;BME280;39353;42.864;12.014;2023-12-04T10:32:54;97879.80;;;21.71;46.89
52653;BME280;39353;42.864;12.014;2023-12-04T10:35:21;97877.46;;;21.70;47.14
52653;BME280;39353;42.864;12.014;2023-12-04T10:37:52;97871.50;;;21.70;47.11
52653;BME280;39353;42.864;12.014;2023-12-04T10:40:26;97871.80;;;21.69;47.16
52653;BME280;39353;42.864;12.014;2023-12-04T10:43:12;97886.04;;;21.69;47.20
52653;BME280;39353;42.864;12.014;2023-12-04T10:45:39;97891.96;;;21.69;47.20
52653;BME280;39353;42.864;12.014;2023-12-04T10:48:06;97884.91;;;21.68;47.17
52653;BME280;39353;42.864;12.014;2023-12-04T10:50:35;97872.38;;;21.65;47.24
52653;BME280;39353;42.864;12.014;2023-12-04T10:53:03;97867.89;;;21.63;47.40
52653;BME280;39353;42.864;12.014;2023-12-04T10:55:32;97850.95;;;21.61;47.35
52653;BME280;39353;42.864;12.014;2023-12-04T10:58:04;97831.92;;;21.60;47.24
52653;BME280;39353;42.864;12.014;2023-12-04T11:00:33;97828.06;;;21.59;47.42
52653;BME280;39353;42.864;12.014;2023-12-04T11:03:06;97835.95;;;21.57;47.33
52653;BME280;39353;42.864;12.014;2023-12-04T11:05:39;97830.79;;;21.56;47.50
52653;BME280;39353;42.864;12.014;2023-12-04T11:08:09;97814.75;;;21.55;47.37
52653;BME280;39353;42.864;12.014;2023-12-04T11:10:45;97802.07;;;21.55;47.47
52653;BME280;39353;42.864;12.014;2023-12-04T11:13:17;97799.89;;;21.55;47.57
52653;BME280;39353;42.864;12.014;2023-12-04T11:15:48;97797.66;;;21.55;47.47
52653;BME280;39353;42.864;12.014;2023-12-04T11:18:23;97789.59;;;21.55;47.46
52653;BME280;39353;42.864;12.014;2023-12-04T11:21:10;97779.64;;;21.55;47.36
52653;BME280;39353;42.864;12.014;2023-12-04T11:23:37;97776.36;;;21.55;47.28
52653;BME280;39353;42.864;12.014;2023-12-04T11:26:07;97765.40;;;21.54;47.40
52653;BME280;39353;42.864;12.014;2023-12-04T11:28:34;97760.70;;;21.54;47.15
52653;BME280;39353;42.864;12.014;2023-12-04T11:31:05;97762.92;;;21.55;47.05
52653;BME280;39353;42.864;12.014;2023-12-04T11:33:38;97758.95;;;21.53;46.45
52653;BME280;39353;42.864;12.014;2023-12-04T11:36:13;97762.91;;;21.40;42.17
52653;BME280;39353;42.864;12.014;2023-12-04T11:38:46;97764.52;;;21.23;43.35
52653;BME280;39353;42.864;12.014;2023-12-04T11:41:23;97772.08;;;21.23;44.06
52653;BME280;39353;42.864;12.014;2023-12-04T11:43:50;97771.56;;;21.26;44.58
52653;BME280;39353;42.864;12.014;2023-12-04T11:46:22;97775.28;;;21.34;44.88
52653;BME280;39353;42.864;12.014;2023-12-04T11:48:50;97766.02;;;21.41;45.40
52653;BME280;39353;42.864;12.014;2023-12-04T11:54:08;97750.96;;;21.53;46.41
52653;BME280;39353;42.864;12.014;2023-12-04T11:56:34;97736.95;;;21.56;46.39
52653;BME280;39353;42.864;12.014;2023-12-04T11:59:06;97736.27;;;21.57;46.46
52653;BME280;39353;42.864;12.014;2023-12-04T12:01:39;97734.00;;;21.57;46.46
52653;BME280;39353;42.864;12.014;2023-12-04T12:04:09;97728.77;;;21.58;46.43
52653;BME280;39353;42.864;12.014;2023-12-04T12:06:36;97726.77;;;21.56;46.50
52653;BME280;39353;42.864;12.014;2023-12-04T12:09:03;97730.34;;;21.53;46.56
52653;BME280;39353;42.864;12.014;2023-12-04T12:11:30;97726.41;;;21.55;46.74
52653;BME280;39353;42.864;12.014;2023-12-04T12:13:56;97725.57;;;21.59;47.16
52653;BME280;39353;42.864;12.014;2023-12-04T12:16:22;97723.82;;;21.65;47.92
52653;BME280;39353;42.864;12.014;2023-12-04T12:18:49;97727.13;;;21.70;48.85
52653;BME280;39353;42.864;12.014;2023-12-04T12:21:16;97727.76;;;21.74;49.53
52653;BME280;39353;42.864;12.014;2023-12-04T12:23:42;97721.09;;;21.76;49.68
52653;BME280;39353;42.864;12.014;2023-12-04T12:26:09;97719.31;;;21.78;50.06
52653;BME280;39353;42.864;12.014;2023-12-04T12:28:35;97721.39;;;21.77;50.33
52653;BME280;39353;42.864;12.014;2023-12-04T12:31:03;97719.90;;;21.74;50.25
52653;BME280;39353;42.864;12.014;2023-12-04T12:33:29;97714.13;;;21.71;49.95
52653;BME280;39353;42.864;12.014;2023-12-04T12:35:57;97711.44;;;21.68;49.82
52653;BME280;39353;42.864;12.014;2023-12-04T12:38:24;97708.41;;;21.63;49.66
52653;BME280;39353;42.864;12.014;2023-12-04T12:40:51;97710.33;;;21.58;49.63
52653;BME280;39353;42.864;12.014;2023-12-04T12:43:20;97711.20;;;21.56;49.49
52653;BME280;39353;42.864;12.014;2023-12-04T12:45:49;97705.60;;;21.53;49.35
52653;BME280;39353;42.864;12.014;2023-12-04T12:48:16;97707.74;;;21.53;49.29
52653;BME280;39353;42.864;12.014;2023-12-04T12:50:44;97707.13;;;21.51;49.04
52653;BME280;39353;42.864;12.014;2023-12-04T12:53:11;97700.17;;;21.48;48.99